Time;durP1;ratioP1;P1;durP2;ratioP2;P2;SDS_P1;SDS_P2;PMS_P1;PMS_P2;Temp;Humidity;BMP_temperature;BMP_pressure;BME280_temperature;BME280_humidity;BME280_pressure;Samples;Min_cycle;Max_cycle;Signal;HPM_P1;HPM_P2
2021/07/06 00:00:15;;;;;;;7.63;2.53;;;22.30;99.90;;;;;;5040420;28;20276;-77
2021/07/06 00:02:43;;;;;;;7.17;2.70;;;22.30;99.90;;;;;;5025206;28;21047;-75
2021/07/06 00:05:10;;;;;;;4.77;2.50;;;22.30;99.90;;;;;;5026577;28;20217;-75
2021/07/06 00:07:37;;;;;;;4.00;2.40;;;22.20;99.90;;;;;;5029528;28;21044;-75
2021/07/06 00:10:07;;;;;;;5.80;2.50;;;22.20;99.90;;;;;;5023437;28;20197;-77
2021/07/06 00:12:33;;;;;;;4.53;2.87;;;22.20;99.90;;;;;;5020770;28;20238;-77
2021/07/06 00:15:00;;;;;;;3.90;2.50;;;22.10;99.90;;;;;;5020374;28;20184;-75
2021/07/06 00:17:27;;;;;;;7.70;2.60;;;22.10;99.90;;;;;;5026721;28;20315;-76
2021/07/06 00:19:53;;;;;;;5.77;2.70;;;22.00;99.90;;;;;;5001622;28;20279;-75
2021/07/06 00:22:20;;;;;;;5.73;2.80;;;22.00;99.90;;;;;;5027948;28;20634;-77
2021/07/06 00:24:47;;;;;;;7.00;2.97;;;22.00;99.90;;;;;;5022524;28;20699;-76
2021/07/06 00:27:14;;;;;;;5.47;2.90;;;22.00;99.90;;;;;;5022280;28;20272;-75
2021/07/06 00:29:41;;;;;;;6.83;2.90;;;22.00;99.90;;;;;;5038072;28;20541;-76
2021/07/06 00:32:10;;;;;;;7.00;2.40;;;22.00;99.90;;;;;;5022057;28;20188;-75
2021/07/06 00:34:36;;;;;;;7.27;3.10;;;22.00;99.90;;;;;;5038048;28;20206;-75
2021/07/06 00:37:05;;;;;;;9.20;2.90;;;22.00;99.90;;;;;;5029220;28;21040;-75
2021/07/06 00:39:32;;;;;;;9.67;2.67;;;21.90;99.90;;;;;;4993732;28;20210;-78
2021/07/06 00:41:59;;;;;;;6.53;3.20;;;21.90;99.90;;;;;;5019252;28;20921;-75
2021/07/06 00:44:25;;;;;;;9.87;3.30;;;21.80;99.90;;;;;;5025025;28;20195;-77
2021/07/06 00:46:52;;;;;;;9.37;2.97;;;21.80;99.90;;;;;;5006859;28;20227;-78
2021/07/06 00:49:18;;;;;;;8.27;3.20;;;21.80;99.90;;;;;;5029954;28;20184;-77
2021/07/06 00:51:44;;;;;;;6.37;2.93;;;21.80;99.90;;;;;;5035279;28;20311;-76
2021/07/06 00:54:11;;;;;;;7.67;2.90;;;21.80;99.90;;;;;;5008260;28;20693;-75
2021/07/06 00:56:39;;;;;;;5.63;3.00;;;21.80;99.90;;;;;;5020531;28;20192;-76
2021/07/06 00:59:06;;;;;;;6.67;3.23;;;21.80;99.90;;;;;;5022235;28;20339;-75
2021/07/06 01:01:33;;;;;;;6.20;2.97;;;21.80;99.90;;;;;;5021157;28;20193;-76
2021/07/06 01:03:59;;;;;;;4.43;2.40;;;21.80;99.90;;;;;;5026691;28;20188;-75
2021/07/06 01:06:26;;;;;;;6.37;2.70;;;21.80;99.90;;;;;;5021281;28;20251;-75
2021/07/06 01:08:53;;;;;;;6.83;3.00;;;21.90;99.90;;;;;;5022127;28;20231;-78
2021/07/06 01:11:20;;;;;;;6.00;3.33;;;21.90;99.90;;;;;;5022720;28;20246;-79
2021/07/06 01:13:47;;;;;;;3.50;2.87;;;21.80;99.90;;;;;;5017481;28;20212;-77
2021/07/06 01:16:14;;;;;;;4.93;2.83;;;21.80;99.90;;;;;;5017200;28;20192;-75
2021/07/06 01:18:40;;;;;;;5.60;2.70;;;21.80;99.90;;;;;;5025348;28;20188;-77
2021/07/06 01:21:07;;;;;;;6.50;3.00;;;21.70;99.90;;;;;;5014477;28;20193;-76
2021/07/06 01:23:36;;;;;;;4.07;3.03;;;21.70;99.90;;;;;;5022432;28;20204;-75
2021/07/06 01:26:06;;;;;;;3.87;2.70;;;21.70;99.90;;;;;;5025540;28;20204;-76
2021/07/06 01:28:39;;;;;;;7.70;2.87;;;21.70;99.90;;;;;;5029343;28;20613;-76
2021/07/06 01:31:06;;;;;;;5.30;2.87;;;21.70;99.90;;;;;;5027317;28;20188;-77
2021/07/06 01:33:35;;;;;;;4.80;2.67;;;21.60;99.90;;;;;;5043570;28;20908;-76
2021/07/06 01:36:06;;;;;;;5.70;2.80;;;21.60;99.90;;;;;;5027597;28;20219;-76
2021/07/06 01:38:35;;;;;;;5.00;3.00;;;21.50;99.90;;;;;;5045987;28;20192;-77
2021/07/06 01:41:02;;;;;;;6.40;2.63;;;21.50;99.90;;;;;;5026382;28;20193;-77
2021/07/06 01:43:29;;;;;;;8.37;3.13;;;21.50;99.90;;;;;;5026534;28;20246;-77
2021/07/06 01:45:56;;;;;;;2.93;2.40;;;21.60;99.90;;;;;;5027434;28;20240;-77
2021/07/06 01:48:23;;;;;;;5.97;3.27;;;21.60;99.90;;;;;;5025018;28;20330;-77
2021/07/06 01:50:49;;;;;;;5.07;2.50;;;21.60;99.90;;;;;;5027366;28;20607;-76
2021/07/06 01:53:21;;;;;;;6.80;2.77;;;21.60;99.90;;;;;;5023641;28;20207;-76
2021/07/06 01:55:52;;;;;;;4.57;2.80;;;21.60;99.90;;;;;;5026062;28;20206;-78
2021/07/06 01:58:22;;;;;;;6.10;3.23;;;21.70;99.90;;;;;;5031010;28;20273;-79
2021/07/06 02:00:58;;;;;;;5.73;2.83;;;21.80;99.90;;;;;;5027560;28;20214;-79
2021/07/06 02:03:24;;;;;;;5.03;2.67;;;21.80;99.90;;;;;;5024898;28;20192;-78
2021/07/06 02:05:57;;;;;;;5.77;3.13;;;21.80;99.90;;;;;;5020871;28;20204;-76
2021/07/06 02:08:25;;;;;;;6.13;2.60;;;21.70;99.90;;;;;;5042671;28;20194;-76
2021/07/06 02:10:55;;;;;;;6.13;2.50;;;21.70;99.90;;;;;;5032194;28;20195;-76
2021/07/06 02:13:25;;;;;;;4.53;2.50;;;21.60;99.90;;;;;;5043244;28;20270;-77
2021/07/06 02:15:55;;;;;;;4.00;2.50;;;21.60;99.90;;;;;;5027645;28;20840;-76
2021/07/06 02:18:23;;;;;;;6.10;2.43;;;21.50;99.90;;;;;;5024238;28;20235;-75
2021/07/06 02:20:54;;;;;;;6.40;2.30;;;21.40;99.90;;;;;;5028338;28;20188;-76
2021/07/06 02:23:23;;;;;;;4.27;2.30;;;21.40;99.90;;;;;;5034954;28;21255;-76
2021/07/06 02:25:50;;;;;;;10.43;2.63;;;21.40;99.90;;;;;;5021820;28;20342;-76
2021/07/06 02:28:17;;;;;;;4.60;2.53;;;21.40;99.90;;;;;;5011903;28;20203;-78
2021/07/06 02:30:43;;;;;;;4.03;2.23;;;21.40;99.90;;;;;;5039704;28;20177;-78
2021/07/06 02:33:09;;;;;;;3.33;2.40;;;21.40;99.90;;;;;;5028830;28;20196;-76
2021/07/06 02:35:36;;;;;;;5.83;2.33;;;21.30;99.90;;;;;;5022844;28;20188;-78
2021/07/06 02:38:03;;;;;;;6.37;2.30;;;21.30;99.90;;;;;;5042016;28;20184;-76
2021/07/06 02:40:30;;;;;;;4.30;2.37;;;21.30;99.90;;;;;;5014812;28;20196;-75
2021/07/06 02:42:58;;;;;;;5.23;2.60;;;21.30;99.90;;;;;;5019152;28;20184;-75
2021/07/06 02:45:26;;;;;;;3.87;2.33;;;21.40;99.90;;;;;;5022871;28;20794;-76
2021/07/06 02:47:53;;;;;;;4.37;2.50;;;21.40;99.90;;;;;;5036990;28;20189;-76
2021/07/06 02:50:22;;;;;;;3.43;2.70;;;21.40;99.90;;;;;;5029155;28;20176;-78
2021/07/06 02:52:50;;;;;;;3.07;2.20;;;21.40;99.90;;;;;;5021282;28;20283;-78
2021/07/06 02:55:18;;;;;;;4.37;2.30;;;21.50;99.90;;;;;;5030911;28;20200;-77
2021/07/06 02:57:45;;;;;;;3.23;2.33;;;21.40;99.90;;;;;;5022775;28;20628;-77
2021/07/06 03:00:23;;;;;;;2.90;2.20;;;21.50;99.90;;;;;;5022493;28;20233;-76
2021/07/06 03:03:01;;;;;;;3.70;2.37;;;21.50;99.90;;;;;;5023617;28;20184;-76
2021/07/06 03:05:30;;;;;;;3.60;2.20;;;21.50;99.90;;;;;;5023824;28;20259;-75
2021/07/06 03:07:59;;;;;;;6.93;2.30;;;21.40;99.90;;;;;;5031530;28;20184;-76
2021/07/06 03:10:32;;;;;;;6.43;2.57;;;21.40;99.90;;;;;;5041584;28;20185;-76
2021/07/06 03:13:00;;;;;;;6.10;2.50;;;21.40;99.90;;;;;;5028651;28;20196;-77
2021/07/06 03:15:29;;;;;;;5.03;2.83;;;21.40;99.90;;;;;;5027056;28;20277;-78
2021/07/06 03:17:56;;;;;;;10.60;2.63;;;21.40;99.90;;;;;;5024522;28;21411;-79
2021/07/06 03:20:26;;;;;;;4.10;2.40;;;21.50;99.90;;;;;;5028936;28;20188;-78
2021/07/06 03:22:53;;;;;;;5.67;2.60;;;21.50;99.90;;;;;;5027124;28;20192;-76
2021/07/06 03:25:21;;;;;;;3.47;2.60;;;21.50;99.90;;;;;;5035142;28;20254;-79
2021/07/06 03:27:48;;;;;;;5.17;2.43;;;21.50;99.90;;;;;;5025586;28;20196;-77
2021/07/06 03:30:19;;;;;;;5.63;2.63;;;21.50;99.90;;;;;;5044188;28;20196;-76
2021/07/06 03:32:47;;;;;;;2.43;2.20;;;21.50;99.90;;;;;;5031639;28;20176;-76
2021/07/06 03:35:17;;;;;;;4.67;2.50;;;21.50;99.90;;;;;;5032442;28;21109;-78
2021/07/06 03:37:45;;;;;;;10.87;2.90;;;21.50;99.90;;;;;;5033804;28;20193;-78
2021/07/06 03:40:12;;;;;;;5.93;2.53;;;21.50;99.90;;;;;;5029305;28;20192;-76
2021/07/06 03:42:39;;;;;;;5.80;2.50;;;21.60;99.90;;;;;;5014404;28;20280;-78
2021/07/06 03:45:09;;;;;;;4.17;2.43;;;21.50;99.90;;;;;;5042795;28;20216;-76
2021/07/06 03:47:36;;;;;;;5.83;2.47;;;21.60;99.90;;;;;;5026185;28;20235;-77
2021/07/06 03:50:07;;;;;;;5.73;2.70;;;21.60;99.90;;;;;;5023535;28;20283;-76
2021/07/06 03:52:33;;;;;;;5.20;2.47;;;21.60;99.90;;;;;;5014082;28;20227;-75
2021/07/06 03:55:00;;;;;;;5.47;2.50;;;21.60;99.90;;;;;;5027148;28;20231;-76
2021/07/06 03:57:29;;;;;;;4.10;2.73;;;21.60;99.90;;;;;;5025050;28;20275;-76
2021/07/06 04:00:04;;;;;;;6.93;2.53;;;21.60;99.90;;;;;;5027178;28;20664;-76
2021/07/06 04:02:30;;;;;;;6.33;2.50;;;21.70;99.90;;;;;;5026753;28;20195;-77
2021/07/06 04:04:57;;;;;;;5.47;2.50;;;21.70;99.90;;;;;;5050142;28;20212;-77
2021/07/06 04:07:23;;;;;;;3.97;2.47;;;21.70;99.90;;;;;;5048315;28;20238;-79
2021/07/06 04:09:49;;;;;;;5.87;2.80;;;21.70;99.90;;;;;;5042133;28;20195;-78
2021/07/06 04:12:16;;;;;;;4.93;2.47;;;21.80;99.90;;;;;;5050557;28;20197;-79
2021/07/06 04:14:43;;;;;;;3.60;2.30;;;21.90;99.90;;;;;;5041229;28;20612;-77
2021/07/06 04:17:09;;;;;;;2.70;2.20;;;21.90;99.90;;;;;;5037844;28;20183;-77
2021/07/06 04:19:37;;;;;;;5.40;2.70;;;21.90;99.90;;;;;;5030511;28;20315;-76
2021/07/06 04:22:04;;;;;;;4.83;2.50;;;21.90;99.90;;;;;;5048097;28;20188;-78
2021/07/06 04:24:30;;;;;;;2.60;2.33;;;22.00;99.90;;;;;;5036377;28;20246;-78
2021/07/06 04:26:58;;;;;;;5.30;2.53;;;22.00;99.90;;;;;;5024744;28;20220;-78
2021/07/06 04:29:26;;;;;;;5.37;2.50;;;22.10;99.90;;;;;;5022197;28;20665;-76
2021/07/06 04:31:54;;;;;;;4.73;2.63;;;22.20;99.90;;;;;;5038845;28;20189;-76
2021/07/06 04:34:22;;;;;;;4.17;2.53;;;22.20;99.90;;;;;;5028031;28;21164;-78
2021/07/06 04:36:49;;;;;;;4.33;2.30;;;22.30;99.90;;;;;;5025467;28;20196;-78
2021/07/06 04:39:15;;;;;;;6.37;2.57;;;22.30;99.90;;;;;;5041999;28;20816;-76
2021/07/06 04:41:48;;;;;;;4.97;2.47;;;22.40;99.90;;;;;;5024416;28;20227;-75
2021/07/06 04:44:16;;;;;;;4.23;2.17;;;22.40;99.90;;;;;;5040801;28;20977;-79
2021/07/06 04:46:43;;;;;;;6.00;2.67;;;22.50;99.90;;;;;;5027766;28;20223;-80
2021/07/06 04:49:10;;;;;;;4.90;2.30;;;22.50;99.90;;;;;;5051388;28;20196;-81
2021/07/06 04:51:37;;;;;;;7.37;2.53;;;22.60;99.90;;;;;;5027098;28;20192;-77
2021/07/06 04:54:03;;;;;;;5.03;2.50;;;22.60;99.90;;;;;;5048879;28;20203;-77
2021/07/06 04:56:29;;;;;;;3.23;2.27;;;22.70;99.90;;;;;;5023012;28;20641;-77
2021/07/06 04:58:56;;;;;;;4.17;2.40;;;22.70;99.90;;;;;;5023307;28;20758;-79
2021/07/06 05:01:23;;;;;;;6.57;2.50;;;22.70;99.90;;;;;;5029026;28;20183;-77
2021/07/06 05:03:51;;;;;;;5.97;2.37;;;22.80;99.90;;;;;;5028248;28;20184;-77
2021/07/06 05:06:19;;;;;;;8.27;2.30;;;22.80;99.90;;;;;;5026817;28;20251;-79
2021/07/06 05:08:47;;;;;;;3.33;2.23;;;22.90;99.90;;;;;;5019169;28;20185;-77
2021/07/06 05:11:15;;;;;;;5.33;2.63;;;22.90;99.90;;;;;;5044383;28;20219;-78
2021/07/06 05:13:43;;;;;;;3.25;2.35;;;23.00;99.90;;;;;;5023958;28;21152;-76
2021/07/06 05:16:09;;;;;;;3.97;2.15;;;23.00;99.90;;;;;;5022580;28;20199;-78
2021/07/06 05:18:36;;;;;;;4.50;2.33;;;23.20;99.90;;;;;;5040959;28;20292;-78
2021/07/06 05:21:02;;;;;;;5.17;2.40;;;23.30;99.90;;;;;;5030764;28;20219;-76
2021/07/06 05:23:29;;;;;;;4.03;2.17;;;23.20;99.90;;;;;;5028574;28;20488;-78
2021/07/06 05:25:55;;;;;;;5.43;2.20;;;23.30;99.90;;;;;;5039801;28;20287;-75
2021/07/06 05:28:22;;;;;;;6.07;2.60;;;23.30;99.90;;;;;;5023342;28;20544;-78
2021/07/06 05:30:48;;;;;;;3.30;2.20;;;23.40;99.90;;;;;;5018326;28;20188;-77
2021/07/06 05:33:14;;;;;;;5.20;2.53;;;23.40;99.90;;;;;;5021040;28;20197;-78
2021/07/06 05:35:41;;;;;;;3.05;2.08;;;23.30;99.90;;;;;;5028720;28;20188;-78
2021/07/06 05:38:07;;;;;;;4.15;2.42;;;23.40;99.90;;;;;;5043971;28;20192;-76
2021/07/06 05:40:38;;;;;;;3.03;2.22;;;23.50;99.90;;;;;;5042698;28;20192;-76
2021/07/06 05:43:07;;;;;;;3.05;2.22;;;23.60;99.90;;;;;;5043081;28;20196;-78
2021/07/06 05:45:35;;;;;;;4.50;2.17;;;23.70;99.90;;;;;;5030231;28;20200;-77
2021/07/06 05:48:03;;;;;;;7.28;2.20;;;23.80;99.90;;;;;;5025894;28;20592;-78
2021/07/06 05:50:31;;;;;;;4.90;2.05;;;24.10;99.90;;;;;;5028035;28;20219;-79
2021/07/06 05:52:59;;;;;;;4.73;2.30;;;23.90;99.90;;;;;;5006041;28;20194;-78
2021/07/06 05:55:26;;;;;;;5.03;2.10;;;24.00;99.90;;;;;;5024384;28;20717;-78
2021/07/06 05:57:52;;;;;;;5.60;2.10;;;24.00;99.90;;;;;;5024381;28;20230;-77
2021/07/06 06:00:19;;;;;;;6.20;2.20;;;23.90;99.90;;;;;;5013414;28;20242;-79
2021/07/06 06:02:46;;;;;;;3.05;2.00;;;24.10;99.90;;;;;;5028441;28;20555;-77
2021/07/06 06:05:13;;;;;;;2.45;2.00;;;24.40;99.90;;;;;;5022602;28;20295;-76
2021/07/06 06:07:42;;;;;;;4.28;2.35;;;24.60;99.90;;;;;;5018145;28;20777;-75
2021/07/06 06:10:11;;;;;;;3.83;2.03;;;24.50;99.90;;;;;;5029354;28;20185;-76
2021/07/06 06:12:40;;;;;;;3.78;2.25;;;24.50;99.90;;;;;;5022940;28;20949;-76
2021/07/06 06:15:08;;;;;;;3.55;1.83;;;24.90;99.90;;;;;;5025977;28;20184;-78
2021/07/06 06:17:37;;;;;;;7.80;2.30;;;24.80;99.90;;;;;;5027129;28;20196;-78
2021/07/06 06:20:06;;;;;;;4.35;2.53;;;25.10;99.90;;;;;;5012294;28;20179;-78
2021/07/06 06:22:33;;;;;;;7.43;2.40;;;25.20;99.90;;;;;;5022926;28;20187;-76
2021/07/06 06:25:01;;;;;;;10.90;2.50;;;25.20;99.90;;;;;;5022870;28;20195;-77
2021/07/06 06:27:27;;;;;;;5.93;2.30;;;25.20;99.90;;;;;;5028069;28;20612;-75
2021/07/06 06:29:54;;;;;;;4.93;2.42;;;25.40;99.90;;;;;;5017123;28;20188;-75
2021/07/06 06:32:23;;;;;;;5.57;2.33;;;25.50;99.90;;;;;;5017732;28;20278;-78
2021/07/06 06:34:51;;;;;;;7.18;2.35;;;25.80;99.90;;;;;;5014849;28;20210;-77
2021/07/06 06:37:19;;;;;;;9.35;2.28;;;25.90;99.90;;;;;;5028574;28;20283;-79
2021/07/06 06:39:46;;;;;;;5.32;2.10;;;26.10;99.90;;;;;;5029290;28;20792;-76
2021/07/06 06:42:12;;;;;;;5.35;2.35;;;25.90;99.90;;;;;;5039775;28;20184;-76
2021/07/06 06:44:39;;;;;;;5.57;2.35;;;25.90;99.90;;;;;;5028218;28;20211;-79
2021/07/06 06:47:06;;;;;;;6.38;2.33;;;26.20;99.90;;;;;;5037547;28;20227;-77
2021/07/06 06:49:34;;;;;;;5.35;2.20;;;26.10;99.90;;;;;;5022897;28;20305;-79
2021/07/06 06:52:01;;;;;;;6.68;2.40;;;26.40;99.90;;;;;;5025754;28;20180;-79
2021/07/06 06:54:28;;;;;;;5.70;2.38;;;26.20;99.90;;;;;;5039917;28;20712;-76
2021/07/06 06:56:55;;;;;;;5.40;2.45;;;26.20;99.90;;;;;;5037884;28;20209;-80
2021/07/06 06:59:21;;;;;;;4.80;2.38;;;26.40;99.90;;;;;;5029424;28;20200;-76
2021/07/06 07:01:48;;;;;;;6.35;2.42;;;26.70;99.90;;;;;;5021110;28;20196;-79
2021/07/06 07:04:14;;;;;;;7.57;2.53;;;26.70;99.90;;;;;;5027962;28;20188;-76
2021/07/06 07:06:40;;;;;;;7.63;2.10;;;26.90;99.90;;;;;;5028094;28;20208;-75
2021/07/06 07:09:08;;;;;;;5.25;2.45;;;26.80;99.90;;;;;;5023222;28;20234;-76
2021/07/06 07:11:35;;;;;;;5.68;2.58;;;27.00;99.90;;;;;;5026220;28;20203;-78
2021/07/06 07:14:02;;;;;;;4.15;2.03;;;27.20;99.90;;;;;;5030820;28;20188;-78
2021/07/06 07:16:28;;;;;;;4.65;1.90;;;27.10;99.90;;;;;;5011957;28;20218;-76
2021/07/06 07:18:55;;;;;;;3.30;2.10;;;27.30;99.90;;;;;;5024777;28;20192;-76
2021/07/06 07:21:21;;;;;;;8.35;2.40;;;27.30;99.90;;;;;;5032280;28;20928;-75
2021/07/06 07:23:47;;;;;;;4.70;2.20;;;27.50;99.90;;;;;;5024404;28;20265;-76
2021/07/06 07:26:14;;;;;;;3.50;2.08;;;27.60;99.90;;;;;;5041846;28;20235;-75
2021/07/06 07:28:40;;;;;;;3.88;1.90;;;27.50;99.90;;;;;;5029065;28;20196;-76
2021/07/06 07:31:06;;;;;;;6.32;2.17;;;27.50;99.90;;;;;;5028819;28;20193;-76
2021/07/06 07:33:33;;;;;;;4.47;1.88;;;27.70;99.90;;;;;;5020660;28;20196;-76
2021/07/06 07:35:59;;;;;;;8.43;2.00;;;27.60;99.90;;;;;;5038889;28;20194;-76
2021/07/06 07:38:27;;;;;;;5.93;2.00;;;27.70;99.90;;;;;;5043103;28;20215;-76
2021/07/06 07:40:53;;;;;;;5.57;2.20;;;27.90;99.90;;;;;;5022345;28;20243;-75
2021/07/06 07:43:20;;;;;;;5.55;2.05;;;28.00;99.90;;;;;;5030990;28;20189;-76
2021/07/06 07:45:46;;;;;;;5.57;2.10;;;27.90;99.90;;;;;;5027261;28;20211;-77
2021/07/06 07:48:13;;;;;;;3.38;2.13;;;28.10;99.90;;;;;;5039868;28;20197;-76
2021/07/06 07:50:39;;;;;;;7.22;2.20;;;28.30;99.90;;;;;;5032219;28;20184;-76
2021/07/06 07:53:05;;;;;;;6.25;2.42;;;28.30;99.90;;;;;;5027326;28;20192;-75
2021/07/06 07:55:32;;;;;;;4.53;2.28;;;28.20;99.90;;;;;;5043074;28;20286;-75
2021/07/06 07:57:58;;;;;;;3.08;2.47;;;28.20;99.90;;;;;;5030148;28;20187;-75
2021/07/06 08:00:25;;;;;;;3.42;2.40;;;28.40;99.90;;;;;;5023491;28;20197;-74
2021/07/06 08:02:51;;;;;;;5.30;2.38;;;28.40;99.90;;;;;;5024278;28;20195;-76
2021/07/06 08:05:19;;;;;;;9.23;2.75;;;28.50;99.90;;;;;;5018963;28;21015;-74
2021/07/06 08:07:46;;;;;;;8.20;2.80;;;28.60;99.90;;;;;;5044404;28;20196;-75
2021/07/06 08:10:13;;;;;;;7.65;2.85;;;28.50;99.90;;;;;;5027642;28;20890;-75
2021/07/06 08:12:39;;;;;;;8.07;3.15;;;28.60;99.90;;;;;;5030621;28;20247;-76
2021/07/06 08:15:06;;;;;;;5.60;3.20;;;28.60;99.90;;;;;;5016955;28;20219;-75
2021/07/06 08:17:53;;;;;;;4.78;2.90;;;28.70;99.90;;;;;;5040464;28;20203;-75
2021/07/06 08:20:20;;;;;;;8.43;3.03;;;28.70;99.90;;;;;;5026586;28;20214;-76
2021/07/06 08:22:47;;;;;;;9.73;3.00;;;28.70;99.90;;;;;;5024625;28;20192;-78
2021/07/06 08:25:15;;;;;;;8.52;2.83;;;28.70;99.90;;;;;;5031867;28;20700;-80
2021/07/06 08:27:41;;;;;;;6.38;2.33;;;28.80;99.90;;;;;;5023603;28;20584;-75
2021/07/06 08:30:08;;;;;;;6.70;2.90;;;28.80;99.90;;;;;;5010834;28;20187;-75
2021/07/06 08:32:35;;;;;;;7.93;3.13;;;28.70;99.90;;;;;;5039351;28;20200;-75
2021/07/06 08:35:03;;;;;;;6.78;2.92;;;28.70;99.90;;;;;;5019228;28;20185;-76
2021/07/06 08:37:31;;;;;;;8.65;3.50;;;28.70;99.90;;;;;;5022962;28;20192;-76
2021/07/06 08:40:36;;;;;;;6.25;3.05;;;28.70;99.90;;;;;;5030563;28;20192;-76
2021/07/06 08:43:06;;;;;;;5.43;3.20;;;28.80;99.90;;;;;;5029627;28;20184;-78
2021/07/06 08:45:34;;;;;;;6.97;3.13;;;28.80;99.90;;;;;;5023837;28;20230;-76
2021/07/06 08:48:01;;;;;;;6.93;2.85;;;28.90;99.90;;;;;;5040565;28;20189;-75
2021/07/06 08:50:28;;;;;;;7.90;3.30;;;29.00;99.90;;;;;;5039459;28;20267;-75
2021/07/06 08:52:54;;;;;;;7.00;2.53;;;29.00;99.90;;;;;;5038433;28;20275;-77
2021/07/06 08:55:22;;;;;;;5.60;2.88;;;28.80;99.90;;;;;;5025324;28;22028;-74
2021/07/06 08:57:53;;;;;;;6.20;2.95;;;28.90;99.90;;;;;;5012103;28;20180;-77
2021/07/06 09:00:22;;;;;;;5.45;2.88;;;29.20;99.90;;;;;;5024472;28;20196;-75
2021/07/06 09:03:04;;;;;;;7.20;3.42;;;29.00;99.90;;;;;;5018753;28;20602;-77
2021/07/06 09:05:32;;;;;;;5.03;2.63;;;29.20;99.90;;;;;;5033933;28;20211;-74
2021/07/06 09:08:00;;;;;;;5.82;3.08;;;29.20;99.90;;;;;;5023882;28;20196;-74
2021/07/06 09:10:36;;;;;;;5.80;2.55;;;29.20;99.90;;;;;;5042304;28;20184;-75
2021/07/06 09:13:27;;;;;;;7.25;2.78;;;29.20;99.90;;;;;;5042103;28;20194;-75
2021/07/06 09:15:56;;;;;;;7.35;3.05;;;29.20;99.90;;;;;;5040293;28;20714;-74
2021/07/06 09:18:30;;;;;;;5.32;2.80;;;29.20;99.90;;;;;;5025445;28;20247;-77
2021/07/06 09:21:14;;;;;;;5.32;3.13;;;29.40;99.90;;;;;;5022100;28;20224;-75
2021/07/06 09:23:54;;;;;;;9.27;2.80;;;29.50;99.90;;;;;;5023953;28;20247;-75
2021/07/06 09:26:32;;;;;;;7.82;3.10;;;29.70;99.90;;;;;;5021398;28;20195;-74
2021/07/06 09:29:01;;;;;;;6.57;3.10;;;29.80;99.90;;;;;;5022712;28;20983;-75
2021/07/06 09:31:37;;;;;;;8.55;3.08;;;29.60;99.90;;;;;;5038865;28;20195;-77
2021/07/06 09:34:10;;;;;;;6.57;3.15;;;29.90;99.90;;;;;;5024085;28;20189;-77
2021/07/06 09:36:51;;;;;;;6.70;2.30;;;29.90;99.90;;;;;;5020527;28;20280;-77
2021/07/06 09:39:25;;;;;;;3.97;2.63;;;29.90;99.90;;;;;;5021896;28;20696;-77
2021/07/06 09:42:06;;;;;;;8.02;2.80;;;30.00;99.90;;;;;;5024419;28;20196;-77
2021/07/06 09:44:37;;;;;;;5.68;2.55;;;29.80;99.90;;;;;;5024498;28;20242;-76
2021/07/06 09:47:15;;;;;;;7.55;2.58;;;30.00;99.90;;;;;;5023742;28;20315;-76
2021/07/06 09:49:56;;;;;;;7.05;2.63;;;30.00;99.90;;;;;;5027841;28;20192;-77
2021/07/06 09:52:25;;;;;;;5.80;2.55;;;30.10;99.90;;;;;;5024658;28;20536;-78
2021/07/06 09:54:54;;;;;;;8.25;2.60;;;30.10;99.90;;;;;;5024052;28;20192;-76
2021/07/06 09:57:27;;;;;;;6.95;2.85;;;30.20;99.90;;;;;;5027719;28;20900;-77
2021/07/06 10:00:10;;;;;;;5.68;2.60;;;30.00;99.90;;;;;;5022931;28;20837;-76
2021/07/06 10:02:39;;;;;;;3.22;2.50;;;30.10;99.90;;;;;;5039663;28;20187;-76
2021/07/06 10:05:18;;;;;;;5.53;2.53;;;30.20;99.90;;;;;;5019228;28;20228;-77
2021/07/06 10:07:45;;;;;;;7.65;2.35;;;30.40;99.90;;;;;;5018197;28;20702;-77
2021/07/06 10:10:14;;;;;;;5.10;2.30;;;30.30;99.90;;;;;;5020570;28;20184;-78
2021/07/06 10:12:45;;;;;;;4.00;2.40;;;30.60;99.90;;;;;;5021104;28;20181;-76
2021/07/06 10:15:14;;;;;;;5.65;2.30;;;30.60;99.90;;;;;;5028161;28;20196;-78
2021/07/06 10:17:42;;;;;;;8.32;2.45;;;30.80;99.90;;;;;;5020554;28;20219;-76
2021/07/06 10:20:21;;;;;;;7.30;2.30;;;30.80;99.90;;;;;;5022143;28;20685;-76
2021/07/06 10:23:00;;;;;;;4.47;2.40;;;30.80;99.90;;;;;;5036680;28;20184;-76
2021/07/06 10:25:32;;;;;;;7.88;2.97;;;30.80;99.90;;;;;;5040542;28;20218;-77
2021/07/06 10:28:14;;;;;;;7.20;2.28;;;31.10;99.90;;;;;;5030834;28;20195;-76
2021/07/06 10:30:49;;;;;;;6.53;2.00;;;31.20;99.90;;;;;;5023886;28;20191;-77
2021/07/06 10:33:36;;;;;;;5.20;1.70;;;31.30;99.90;;;;;;5007109;28;20193;-76
2021/07/06 10:36:04;;;;;;;3.45;2.05;;;31.20;99.90;;;;;;5025062;28;20188;-77
2021/07/06 10:38:33;;;;;;;7.18;2.10;;;31.30;99.90;;;;;;5015076;28;20871;-75
2021/07/06 10:41:42;;;;;;;5.03;2.30;;;31.50;99.20;;;;;;5016653;28;20216;-76
2021/07/06 10:44:09;;;;;;;4.80;2.03;;;31.50;99.00;;;;;;4984968;28;20199;-75
2021/07/06 10:46:39;;;;;;;4.15;1.90;;;31.50;98.10;;;;;;5011632;28;20224;-76
2021/07/06 10:49:10;;;;;;;4.40;2.00;;;31.20;97.80;;;;;;5011959;28;20831;-77
2021/07/06 10:51:37;;;;;;;3.92;2.05;;;31.30;97.40;;;;;;5019299;28;20530;-78
2021/07/06 10:54:09;;;;;;;8.15;2.22;;;31.20;97.30;;;;;;5020990;28;20228;-77
2021/07/06 10:56:48;;;;;;;4.07;1.88;;;31.30;96.80;;;;;;5021648;28;20231;-77
2021/07/06 10:59:35;;;;;;;4.75;2.20;;;31.40;96.10;;;;;;5025362;28;20232;-77
2021/07/06 11:02:26;;;;;;;7.38;2.05;;;31.30;96.10;;;;;;5026317;28;20188;-77
2021/07/06 11:04:58;;;;;;;4.15;2.10;;;31.40;96.10;;;;;;5033806;28;20848;-76
2021/07/06 11:07:37;;;;;;;4.88;2.17;;;31.60;95.90;;;;;;5022073;28;20216;-75
2021/07/06 11:10:06;;;;;;;5.13;2.10;;;31.20;97.70;;;;;;5017202;28;20184;-76
2021/07/06 11:12:38;;;;;;;7.13;1.95;;;30.60;98.80;;;;;;5024222;28;20188;-76
2021/07/06 11:15:06;;;;;;;4.70;2.10;;;30.80;97.80;;;;;;5024728;28;20188;-77
2021/07/06 11:17:38;;;;;;;3.63;1.95;;;31.50;96.40;;;;;;5022105;28;20620;-77
2021/07/06 11:20:18;;;;;;;5.18;2.38;;;31.20;97.40;;;;;;5026126;28;20723;-76
2021/07/06 11:22:54;;;;;;;4.63;1.70;;;31.10;97.00;;;;;;5024491;28;20210;-76
2021/07/06 11:25:35;;;;;;;5.18;1.85;;;31.40;93.60;;;;;;5019903;28;20875;-76
2021/07/06 11:28:27;;;;;;;6.05;1.90;;;31.70;91.70;;;;;;5022705;28;20190;-77
2021/07/06 11:31:02;;;;;;;4.57;1.60;;;31.60;91.40;;;;;;5024571;28;20216;-76
2021/07/06 11:33:32;;;;;;;4.60;1.70;;;31.30;90.90;;;;;;5023029;28;20628;-77
2021/07/06 11:36:16;;;;;;;4.13;1.80;;;31.00;92.70;;;;;;5023941;28;20697;-76
2021/07/06 11:38:47;;;;;;;5.72;1.60;;;31.40;91.70;;;;;;5026737;28;20562;-77
2021/07/06 11:41:17;;;;;;;3.65;1.70;;;31.50;87.40;;;;;;5016150;28;20187;-76
2021/07/06 11:43:45;;;;;;;3.45;1.70;;;31.30;88.60;;;;;;5021530;28;20191;-77
2021/07/06 11:46:22;;;;;;;3.67;1.77;;;31.10;84.70;;;;;;5023838;28;21480;-77
2021/07/06 11:48:54;;;;;;;6.88;1.70;;;30.80;86.20;;;;;;5026571;28;20176;-76
2021/07/06 11:51:24;;;;;;;4.13;1.70;;;30.80;84.70;;;;;;5024138;28;20664;-76
2021/07/06 11:53:54;;;;;;;3.25;1.60;;;30.80;90.80;;;;;;5029367;28;20188;-77
2021/07/06 11:56:26;;;;;;;6.95;1.88;;;31.00;90.50;;;;;;5028003;28;21625;-75
2021/07/06 11:58:53;;;;;;;8.20;1.63;;;30.40;91.90;;;;;;5037936;28;20188;-76
2021/07/06 12:01:20;;;;;;;3.45;1.60;;;30.30;90.60;;;;;;5015601;28;20207;-75
2021/07/06 12:03:47;;;;;;;5.85;2.03;;;30.70;90.50;;;;;;5022300;28;20184;-75
2021/07/06 12:06:19;;;;;;;3.70;1.50;;;31.30;87.00;;;;;;5041237;28;20299;-74
2021/07/06 12:08:54;;;;;;;3.10;1.48;;;31.30;86.40;;;;;;5029827;28;20915;-76
2021/07/06 12:11:22;;;;;;;4.00;1.70;;;30.90;90.10;;;;;;5038786;28;20184;-74
2021/07/06 12:13:54;;;;;;;3.90;1.67;;;31.00;86.10;;;;;;5021131;28;20184;-76
2021/07/06 12:16:28;;;;;;;3.25;1.80;;;31.30;87.10;;;;;;5021431;28;20649;-74
2021/07/06 12:19:02;;;;;;;2.70;1.45;;;31.10;89.10;;;;;;5023585;28;20379;-76
2021/07/06 12:21:36;;;;;;;5.07;1.98;;;30.90;84.30;;;;;;5022306;28;20183;-75
2021/07/06 12:24:08;;;;;;;2.75;1.65;;;30.90;83.80;;;;;;5026918;28;20191;-75
2021/07/06 12:26:46;;;;;;;6.00;1.85;;;30.50;87.30;;;;;;5040904;28;20557;-75
2021/07/06 12:29:14;;;;;;;4.35;1.75;;;30.80;85.90;;;;;;5040808;28;20564;-76
2021/07/06 12:31:41;;;;;;;5.18;1.40;;;30.70;89.20;;;;;;5028844;28;20196;-74
2021/07/06 12:34:11;;;;;;;3.08;1.60;;;31.10;83.40;;;;;;5021089;28;20645;-74
2021/07/06 12:36:40;;;;;;;5.55;1.80;;;31.00;89.30;;;;;;5027157;28;20234;-77
2021/07/06 12:39:36;;;;;;;3.50;1.85;;;31.10;85.60;;;;;;5041903;28;20196;-75
2021/07/06 12:42:21;;;;;;;3.63;1.70;;;31.00;82.50;;;;;;5034740;28;20222;-75
2021/07/06 12:44:59;;;;;;;4.70;1.80;;;31.00;83.20;;;;;;5037042;28;20191;-76
2021/07/06 12:47:33;;;;;;;2.50;1.77;;;30.70;87.00;;;;;;5024679;28;20310;-75
2021/07/06 12:50:18;;;;;;;5.47;1.80;;;31.40;84.00;;;;;;5037230;28;20794;-76
2021/07/06 12:53:03;;;;;;;3.40;1.65;;;31.30;83.70;;;;;;5024544;28;20192;-75
2021/07/06 12:55:31;;;;;;;5.15;1.77;;;30.70;86.40;;;;;;5030075;28;20196;-75
2021/07/06 12:58:08;;;;;;;4.32;1.80;;;31.10;86.70;;;;;;5024521;28;20219;-75